createdAt,value
2023-04-17T00:00:19.249Z,29.21
2023-04-17T00:01:19.215Z,29.21
2023-04-17T00:02:19.350Z,29.19
2023-04-17T00:03:19.376Z,29.20
2023-04-17T00:04:19.378Z,29.21
2023-04-17T00:05:19.331Z,29.20
2023-04-17T00:06:19.280Z,29.20
2023-04-17T00:07:19.261Z,29.21
2023-04-17T00:08:19.270Z,29.20
2023-04-17T00:09:19.293Z,29.23
2023-04-17T00:10:19.354Z,29.20
2023-04-17T00:11:19.326Z,29.23
2023-04-17T00:12:19.341Z,29.21
2023-04-17T00:13:19.371Z,29.21
2023-04-17T00:14:19.367Z,29.22
2023-04-17T00:15:19.459Z,29.24
2023-04-17T00:16:19.478Z,29.23
2023-04-17T00:17:19.460Z,29.22
2023-04-17T00:18:19.488Z,29.21
2023-04-17T00:19:19.547Z,29.23
2023-04-17T00:20:19.527Z,29.22
2023-04-17T00:21:19.517Z,29.23
2023-04-17T00:22:19.512Z,29.23
2023-04-17T00:23:19.527Z,29.24
2023-04-17T00:24:19.529Z,29.23
2023-04-17T00:25:19.571Z,29.23
2023-04-17T00:26:19.549Z,29.22
2023-04-17T00:27:19.541Z,29.23
2023-04-17T00:28:19.639Z,29.24
2023-04-17T00:29:19.606Z,29.23
2023-04-17T00:30:19.617Z,29.24
2023-04-17T00:31:19.665Z,29.23
2023-04-17T00:32:19.627Z,29.23
2023-04-17T00:33:19.673Z,29.22
2023-04-17T00:34:19.671Z,29.23
2023-04-17T00:35:19.684Z,29.24
2023-04-17T00:36:19.685Z,29.25
2023-04-17T00:37:19.663Z,29.26
2023-04-17T00:38:19.685Z,29.25
2023-04-17T00:39:19.660Z,29.24
2023-04-17T00:40:19.706Z,29.23
2023-04-17T00:41:19.739Z,29.23
2023-04-17T00:42:19.721Z,29.24
2023-04-17T00:43:19.722Z,29.24
2023-04-17T00:44:19.721Z,29.24
2023-04-17T00:45:19.727Z,29.26
2023-04-17T00:46:19.777Z,29.25
2023-04-17T00:47:19.785Z,29.24
2023-04-17T00:48:19.827Z,29.24
2023-04-17T00:49:19.787Z,29.24
2023-04-17T00:50:19.784Z,29.25
2023-04-17T00:51:19.820Z,29.26
2023-04-17T00:52:19.798Z,29.25
2023-04-17T00:53:19.832Z,29.24
2023-04-17T00:54:19.811Z,29.25
2023-04-17T00:55:19.859Z,29.26
2023-04-17T00:56:19.865Z,29.25
2023-04-17T00:57:19.875Z,29.24
2023-04-17T00:58:19.872Z,29.24
2023-04-17T00:59:19.890Z,29.25
2023-04-17T01:00:19.879Z,29.24
2023-04-17T01:01:19.958Z,29.27
2023-04-17T01:02:19.966Z,29.25
2023-04-17T01:03:20.080Z,29.27
2023-04-17T01:04:19.986Z,29.26
2023-04-17T01:05:19.933Z,29.25
2023-04-17T01:06:19.968Z,29.26
2023-04-17T01:07:19.946Z,29.27
2023-04-17T01:08:19.989Z,29.26
2023-04-17T01:09:20.031Z,29.27
2023-04-17T01:10:20.047Z,29.27
2023-04-17T01:11:20.033Z,29.25
2023-04-17T01:12:20.029Z,29.27
2023-04-17T01:13:20.032Z,29.26
2023-04-17T01:14:20.059Z,29.28
2023-04-17T01:15:20.070Z,29.27
2023-04-17T01:16:20.828Z,29.29
2023-04-17T01:17:20.246Z,29.28
2023-04-17T01:18:20.102Z,29.29
2023-04-17T01:19:20.113Z,29.27
2023-04-17T01:20:20.123Z,29.26
2023-04-17T01:21:20.170Z,29.27
2023-04-17T01:22:20.181Z,29.28
2023-04-17T01:23:20.178Z,29.26
2023-04-17T01:24:20.177Z,29.30
2023-04-17T01:25:20.216Z,29.28
2023-04-17T01:26:20.215Z,29.29
2023-04-17T01:27:20.244Z,29.28
2023-04-17T01:28:20.255Z,29.28
2023-04-17T01:29:20.249Z,29.27
2023-04-17T01:30:20.314Z,29.30
2023-04-17T01:31:20.309Z,29.27
2023-04-17T01:32:21.260Z,29.28
2023-04-17T01:33:20.282Z,29.29
2023-04-17T01:34:20.311Z,29.27
2023-04-17T01:35:20.353Z,29.26
2023-04-17T01:36:20.366Z,29.28
2023-04-17T01:37:20.362Z,29.29
2023-04-17T01:38:20.390Z,29.30
2023-04-17T01:39:20.408Z,29.29
2023-04-17T01:40:20.381Z,29.29
2023-04-17T01:41:20.416Z,29.27
2023-04-17T01:42:20.403Z,29.30
2023-04-17T01:43:20.406Z,29.29
2023-04-17T01:44:20.402Z,29.29
2023-04-17T01:45:20.468Z,29.29
2023-04-17T01:46:20.472Z,29.29
2023-04-17T01:47:20.464Z,29.32
2023-04-17T01:48:20.446Z,29.32
2023-04-17T01:49:20.447Z,29.31
2023-04-17T01:50:20.483Z,29.32
2023-04-17T01:51:20.456Z,29.29
2023-04-17T01:52:20.498Z,29.31
2023-04-17T01:53:20.504Z,29.30
2023-04-17T01:54:20.478Z,29.30
2023-04-17T01:55:20.499Z,29.33
2023-04-17T01:56:20.541Z,29.34
2023-04-17T01:57:20.534Z,29.30
2023-04-17T01:58:20.560Z,29.32
2023-04-17T01:59:20.553Z,29.31
2023-04-17T02:00:20.592Z,29.29
2023-04-17T02:01:20.654Z,29.31
2023-04-17T02:02:20.713Z,29.34
2023-04-17T02:03:20.785Z,29.32
2023-04-17T02:04:20.678Z,29.31
2023-04-17T02:05:20.662Z,29.30
2023-04-17T02:06:20.665Z,29.32
2023-04-17T02:07:20.650Z,29.30
2023-04-17T02:08:20.661Z,29.32
2023-04-17T02:09:20.656Z,29.33
2023-04-17T02:10:20.722Z,29.32
2023-04-17T02:11:20.773Z,29.33
2023-04-17T02:12:20.782Z,29.31
2023-04-17T02:13:20.739Z,29.32
2023-04-17T02:14:20.766Z,29.30
2023-04-17T02:15:20.739Z,29.33
2023-04-17T02:16:20.752Z,29.32
2023-04-17T02:17:20.763Z,29.32
2023-04-17T02:18:20.729Z,29.34
2023-04-17T02:19:20.765Z,29.32
2023-04-17T02:20:20.783Z,29.33
2023-04-17T02:21:20.871Z,29.31
2023-04-17T02:22:20.804Z,29.34
2023-04-17T02:23:20.816Z,29.33
2023-04-17T02:24:20.782Z,29.33
2023-04-17T02:25:20.817Z,29.32
2023-04-17T02:26:20.813Z,29.33
2023-04-17T02:27:20.801Z,29.32
2023-04-17T02:28:20.855Z,29.32
2023-04-17T02:29:20.850Z,29.33
2023-04-17T02:30:20.857Z,29.31
2023-04-17T02:31:20.881Z,29.32
2023-04-17T02:32:20.910Z,29.34
2023-04-17T02:33:20.900Z,29.33
2023-04-17T02:34:20.877Z,29.32
2023-04-17T02:35:20.953Z,29.33
2023-04-17T02:36:20.902Z,29.32
2023-04-17T02:37:20.927Z,29.36
2023-04-17T02:38:21.046Z,29.34
2023-04-17T02:39:20.966Z,29.34
2023-04-17T02:40:20.981Z,29.34
2023-04-17T02:41:20.942Z,29.32
2023-04-17T02:42:20.948Z,29.33
2023-04-17T02:43:20.954Z,29.33
2023-04-17T02:44:20.969Z,29.33
2023-04-17T02:45:20.972Z,29.35
2023-04-17T02:46:21.032Z,29.34
2023-04-17T02:47:20.988Z,29.35
2023-04-17T02:48:20.970Z,29.34
2023-04-17T02:49:20.975Z,29.32
2023-04-17T02:50:20.994Z,29.35
2023-04-17T02:51:21.012Z,29.36
2023-04-17T02:52:21.024Z,29.36
2023-04-17T02:53:21.040Z,29.36
2023-04-17T02:54:21.024Z,29.35
2023-04-17T02:55:21.069Z,29.34
2023-04-17T02:56:21.091Z,29.36
2023-04-17T02:57:21.070Z,29.35
2023-04-17T02:58:21.067Z,29.33
2023-04-17T02:59:21.127Z,29.35
2023-04-17T03:00:21.137Z,29.34
2023-04-17T03:01:21.135Z,29.34
2023-04-17T03:02:21.252Z,29.36
2023-04-17T03:03:21.310Z,29.35
2023-04-17T03:04:21.218Z,29.35
2023-04-17T03:05:21.191Z,29.34
2023-04-17T03:06:21.181Z,29.36
2023-04-17T03:07:21.180Z,29.36
2023-04-17T03:08:21.228Z,29.34
2023-04-17T03:09:21.204Z,29.35
2023-04-17T03:10:21.208Z,29.36
2023-04-17T03:11:21.225Z,29.37
2023-04-17T03:12:21.263Z,29.34
2023-04-17T03:13:21.283Z,29.35
2023-04-17T03:14:21.294Z,29.35
2023-04-17T03:15:21.327Z,29.36
2023-04-17T03:16:21.328Z,29.35
2023-04-17T03:17:21.359Z,29.35
2023-04-17T03:18:21.338Z,29.36
2023-04-17T03:19:21.336Z,29.36
2023-04-17T03:20:21.365Z,29.35
2023-04-17T03:21:21.361Z,29.33
2023-04-17T03:22:21.378Z,29.36
2023-04-17T03:23:21.385Z,29.36
2023-04-17T03:24:21.388Z,29.34
2023-04-17T03:25:21.405Z,29.35
2023-04-17T03:26:21.433Z,29.36
2023-04-17T03:27:21.425Z,29.33
2023-04-17T03:28:21.406Z,29.35
2023-04-17T03:29:21.435Z,29.33
2023-04-17T03:30:21.455Z,29.36
2023-04-17T03:31:24.191Z,29.34
2023-04-17T03:32:21.479Z,29.36
2023-04-17T03:33:21.430Z,29.35
2023-04-17T03:34:21.445Z,29.38
2023-04-17T03:35:21.426Z,29.36
2023-04-17T03:36:21.422Z,29.38
2023-04-17T03:37:21.455Z,29.36
2023-04-17T03:38:21.393Z,29.38
2023-04-17T03:39:21.386Z,29.35
2023-04-17T03:40:21.426Z,29.35
2023-04-17T03:41:21.386Z,29.36
2023-04-17T03:42:21.379Z,29.34
2023-04-17T03:43:21.385Z,29.34
2023-04-17T03:44:21.341Z,29.36
2023-04-17T03:45:21.352Z,29.37
2023-04-17T03:46:21.386Z,29.37
2023-04-17T03:47:21.379Z,29.44
2023-04-17T03:48:21.396Z,29.38
2023-04-17T03:49:21.339Z,29.39
2023-04-17T03:50:21.305Z,29.42
2023-04-17T03:51:21.323Z,29.38
2023-04-17T03:52:21.317Z,29.42
2023-04-17T03:53:21.309Z,29.37
2023-04-17T03:54:21.301Z,29.41
2023-04-17T03:55:21.265Z,29.39
2023-04-17T03:56:21.270Z,29.38
2023-04-17T03:57:21.277Z,29.39
2023-04-17T03:58:21.315Z,29.42
2023-04-17T03:59:21.240Z,29.37
2023-04-17T04:00:21.217Z,29.39
2023-04-17T04:01:21.252Z,29.41
2023-04-17T04:02:21.291Z,29.42
2023-04-17T04:03:21.379Z,29.41
2023-04-17T04:04:21.398Z,29.40
2023-04-17T04:05:21.317Z,29.42
2023-04-17T04:06:21.193Z,29.43
2023-04-17T04:07:21.189Z,29.45
2023-04-17T04:08:21.216Z,29.43
2023-04-17T04:09:21.170Z,29.43
2023-04-17T04:10:21.185Z,29.44
2023-04-17T04:11:21.182Z,29.41
2023-04-17T04:12:21.158Z,29.44
2023-04-17T04:13:21.148Z,29.45
2023-04-17T04:14:21.163Z,29.40
2023-04-17T04:15:21.148Z,29.40
2023-04-17T04:16:21.235Z,29.40
2023-04-17T04:17:21.199Z,29.47
2023-04-17T04:18:21.122Z,29.41
2023-04-17T04:19:21.106Z,29.42
2023-04-17T04:20:21.094Z,29.40
2023-04-17T04:21:21.115Z,29.44
2023-04-17T04:22:21.115Z,29.43
2023-04-17T04:23:21.233Z,29.42
2023-04-17T04:24:21.115Z,29.45
2023-04-17T04:25:21.067Z,29.46
2023-04-17T04:26:21.081Z,29.42
2023-04-17T04:27:21.081Z,29.39
2023-04-17T04:28:21.070Z,29.41
2023-04-17T04:29:21.046Z,29.46
2023-04-17T04:30:21.010Z,29.44
2023-04-17T04:31:21.114Z,29.42
2023-04-17T04:32:21.065Z,29.43
2023-04-17T04:33:21.083Z,29.45
2023-04-17T04:34:21.028Z,29.48
2023-04-17T04:35:20.997Z,29.48
2023-04-17T04:36:21.060Z,29.46
2023-04-17T04:37:20.993Z,29.46
2023-04-17T04:38:20.993Z,29.51
2023-04-17T04:39:20.948Z,29.46
2023-04-17T04:40:20.945Z,29.48
2023-04-17T04:41:20.969Z,29.46
2023-04-17T04:42:20.927Z,29.45
2023-04-17T04:43:22.325Z,29.43
2023-04-17T04:44:20.916Z,29.38
2023-04-17T04:45:20.939Z,29.45
2023-04-17T04:46:20.968Z,29.46
2023-04-17T04:47:20.921Z,29.45
2023-04-17T04:48:20.888Z,29.48
2023-04-17T04:49:20.880Z,29.46
2023-04-17T04:50:20.891Z,29.49
2023-04-17T04:51:20.882Z,29.49
2023-04-17T04:52:20.861Z,29.45
2023-04-17T04:53:20.871Z,29.52
2023-04-17T04:54:20.866Z,29.48
2023-04-17T04:55:20.845Z,29.48
2023-04-17T04:56:20.819Z,29.45
2023-04-17T04:57:20.847Z,29.50
2023-04-17T04:58:20.807Z,29.47
2023-04-17T04:59:20.816Z,29.42
2023-04-17T05:00:20.803Z,29.44
2023-04-17T05:01:20.912Z,29.42
2023-04-17T05:02:20.844Z,29.45
2023-04-17T05:03:21.004Z,29.41
2023-04-17T05:04:20.831Z,29.42
2023-04-17T05:05:20.798Z,29.45
2023-04-17T05:06:20.778Z,29.44
2023-04-17T05:07:20.769Z,29.43
2023-04-17T05:08:20.741Z,29.45
2023-04-17T05:09:20.776Z,29.44
2023-04-17T05:10:20.747Z,29.40
2023-04-17T05:11:20.735Z,29.44
2023-04-17T05:12:20.746Z,29.47
2023-04-17T05:13:20.725Z,29.46
2023-04-17T05:14:20.695Z,29.42
2023-04-17T05:15:20.712Z,29.46
2023-04-17T05:16:20.782Z,29.48
2023-04-17T05:17:20.761Z,29.52
2023-04-17T05:18:20.721Z,29.48
2023-04-17T05:19:20.739Z,29.42
2023-04-17T05:20:20.692Z,29.46
2023-04-17T05:21:20.681Z,29.51
2023-04-17T05:22:20.697Z,29.47
2023-04-17T05:23:20.654Z,29.53
2023-04-17T05:24:20.621Z,29.49
2023-04-17T05:25:20.630Z,29.53
2023-04-17T05:26:20.714Z,29.55
2023-04-17T05:27:20.686Z,29.52
2023-04-17T05:28:20.677Z,29.49
2023-04-17T05:29:20.689Z,29.52
2023-04-17T05:30:20.693Z,29.50
2023-04-17T05:31:20.757Z,29.54
2023-04-17T05:32:20.720Z,29.57
2023-04-17T05:33:20.750Z,29.52
2023-04-17T05:34:20.744Z,29.59
2023-04-17T05:35:20.758Z,29.55
2023-04-17T05:36:20.786Z,29.56
2023-04-17T05:37:20.798Z,29.53
2023-04-17T05:38:20.815Z,29.92
2023-04-17T05:39:20.854Z,30.46
2023-04-17T05:40:20.966Z,30.95
2023-04-17T05:41:21.314Z,30.48
2023-04-17T05:42:20.859Z,31.09
2023-04-17T05:43:20.881Z,31.00
2023-04-17T05:44:20.896Z,31.49
2023-04-17T05:45:22.216Z,31.43
2023-04-17T05:46:21.403Z,31.29
2023-04-17T05:47:21.118Z,31.81
2023-04-17T05:48:21.112Z,31.59
2023-04-17T05:49:21.232Z,31.93
2023-04-17T05:50:21.241Z,31.98
2023-04-17T05:51:21.295Z,32.70
2023-04-17T05:52:21.358Z,33.05
2023-04-17T05:53:21.397Z,34.29
2023-04-17T05:54:21.417Z,35.24
2023-04-17T05:55:21.454Z,34.97
2023-04-17T05:56:21.851Z,36.18
2023-04-17T05:57:21.460Z,35.73
2023-04-17T05:58:24.098Z,34.91
2023-04-17T05:59:21.498Z,34.66
2023-04-17T06:00:21.477Z,34.67
2023-04-17T06:01:21.456Z,35.37
2023-04-17T06:02:21.579Z,35.29
2023-04-17T06:03:21.646Z,35.80
2023-04-17T06:04:21.783Z,35.68
2023-04-17T06:05:21.505Z,35.64
2023-04-17T06:06:21.426Z,35.62
2023-04-17T06:07:21.422Z,35.70
2023-04-17T06:08:21.435Z,35.82
2023-04-17T06:09:21.436Z,35.92
2023-04-17T06:10:21.395Z,35.79
2023-04-17T06:11:21.397Z,36.00
2023-04-17T06:12:21.411Z,36.43
2023-04-17T06:13:21.377Z,36.36
2023-04-17T06:14:21.370Z,36.31
2023-04-17T06:15:21.365Z,36.42
2023-04-17T06:16:21.433Z,36.52
2023-04-17T06:17:21.400Z,36.67
2023-04-17T06:18:21.347Z,36.76
2023-04-17T06:19:21.351Z,36.67
2023-04-17T06:20:21.366Z,36.95
2023-04-17T06:21:21.344Z,37.08
2023-04-17T06:22:21.343Z,37.00
2023-04-17T06:23:21.308Z,37.00
2023-04-17T06:24:21.849Z,37.12
2023-04-17T06:25:21.301Z,37.25
2023-04-17T06:26:21.335Z,37.54
2023-04-17T06:27:21.273Z,37.38
2023-04-17T06:28:21.306Z,37.60
2023-04-17T06:29:21.277Z,37.51
2023-04-17T06:30:21.326Z,37.59
2023-04-17T06:31:21.268Z,37.77
2023-04-17T06:32:21.258Z,37.73
2023-04-17T06:33:21.256Z,37.86
2023-04-17T06:34:21.318Z,37.83
2023-04-17T06:35:21.233Z,37.97
2023-04-17T06:36:21.256Z,38.11
2023-04-17T06:37:21.224Z,38.22
2023-04-17T06:38:21.224Z,38.10
2023-04-17T06:39:21.226Z,38.13
2023-04-17T06:40:21.251Z,38.33
2023-04-17T06:41:21.215Z,38.42
2023-04-17T06:42:21.207Z,38.76
2023-04-17T06:43:21.235Z,38.85
2023-04-17T06:44:21.248Z,38.61
2023-04-17T06:45:21.169Z,38.58
2023-04-17T06:46:21.233Z,38.26
2023-04-17T06:47:21.367Z,38.37
2023-04-17T06:48:21.228Z,38.38
2023-04-17T06:49:21.140Z,38.46
2023-04-17T06:50:21.140Z,38.58
2023-04-17T06:51:21.149Z,38.46
2023-04-17T06:52:21.342Z,38.65
2023-04-17T06:53:21.226Z,38.90
2023-04-17T06:54:21.239Z,38.72
2023-04-17T06:55:21.335Z,38.60
2023-04-17T06:56:21.369Z,38.67
2023-04-17T06:57:21.386Z,38.92
2023-04-17T06:58:21.451Z,38.99
2023-04-17T06:59:21.506Z,38.95
2023-04-17T07:00:21.525Z,38.78
2023-04-17T07:01:21.722Z,38.79
2023-04-17T07:02:21.996Z,38.94
2023-04-17T07:03:21.816Z,38.92
2023-04-17T07:04:21.791Z,39.07
2023-04-17T07:05:21.809Z,39.21
2023-04-17T07:06:21.803Z,39.12
2023-04-17T07:07:21.916Z,39.23
2023-04-17T07:08:21.933Z,39.28
2023-04-17T07:09:21.938Z,39.40
2023-04-17T07:10:21.999Z,39.25
2023-04-17T07:11:21.991Z,39.28
2023-04-17T07:12:22.032Z,39.28
2023-04-17T07:13:22.144Z,39.37
2023-04-17T07:14:22.099Z,39.60
2023-04-17T07:15:22.181Z,39.53
2023-04-17T07:16:22.190Z,39.51
2023-04-17T07:17:22.250Z,39.59
2023-04-17T07:18:22.267Z,39.85
2023-04-17T07:19:22.264Z,39.82
2023-04-17T07:20:22.293Z,40.17
2023-04-17T07:21:22.301Z,39.91
2023-04-17T07:22:22.364Z,40.03
2023-04-17T07:23:22.366Z,40.04
2023-04-17T07:24:22.347Z,39.84
2023-04-17T07:25:22.470Z,39.97
2023-04-17T07:26:22.444Z,39.97
2023-04-17T07:27:22.468Z,40.09
2023-04-17T07:28:22.477Z,40.24
2023-04-17T07:29:22.495Z,40.12
2023-04-17T07:30:22.489Z,40.21
2023-04-17T07:31:22.606Z,40.20
2023-04-17T07:32:22.557Z,40.13
2023-04-17T07:33:22.563Z,40.33
2023-04-17T07:34:22.557Z,40.33
2023-04-17T07:35:22.553Z,40.30
2023-04-17T07:36:22.587Z,40.48
2023-04-17T07:37:22.633Z,40.50
2023-04-17T07:38:23.701Z,40.60
2023-04-17T07:39:22.661Z,40.65
2023-04-17T07:40:22.670Z,41.03
2023-04-17T07:41:22.716Z,40.22
2023-04-17T07:42:22.893Z,40.16
2023-04-17T07:43:22.697Z,40.09
2023-04-17T07:44:22.798Z,40.01
2023-04-17T07:45:22.721Z,39.72
2023-04-17T07:46:22.835Z,39.78
2023-04-17T07:47:22.907Z,39.66
2023-04-17T07:48:22.760Z,39.80
2023-04-17T07:49:22.752Z,39.76
2023-04-17T07:50:22.797Z,39.62
2023-04-17T07:51:22.784Z,38.62
2023-04-17T07:52:22.780Z,35.18
2023-04-17T07:53:22.820Z,34.05
2023-04-17T07:54:22.859Z,32.38
2023-04-17T07:55:22.892Z,32.16
2023-04-17T07:56:22.941Z,32.31
2023-04-17T07:57:22.983Z,32.33
2023-04-17T07:58:22.967Z,32.92
2023-04-17T07:59:23.014Z,32.79
2023-04-17T08:00:23.011Z,32.23
2023-04-17T08:01:23.031Z,31.85
2023-04-17T08:02:23.180Z,32.01
2023-04-17T08:03:23.188Z,32.05
2023-04-17T08:04:23.297Z,31.98
2023-04-17T08:05:23.236Z,32.14
2023-04-17T08:06:23.238Z,33.01
2023-04-17T08:07:23.250Z,32.59
2023-04-17T08:08:23.280Z,32.99
2023-04-17T08:09:23.303Z,33.24
2023-04-17T08:10:23.379Z,33.43
2023-04-17T08:11:23.372Z,33.66
2023-04-17T08:12:23.417Z,33.95
2023-04-17T08:13:23.458Z,34.09
2023-04-17T08:14:23.467Z,34.36
2023-04-17T08:15:23.442Z,34.47
2023-04-17T08:16:23.496Z,34.74
2023-04-17T08:17:23.562Z,34.82
2023-04-17T08:18:23.531Z,35.01
2023-04-17T08:19:23.563Z,35.06
2023-04-17T08:20:23.641Z,35.11
2023-04-17T08:21:23.640Z,35.37
2023-04-17T08:22:23.706Z,35.53
2023-04-17T08:23:23.773Z,35.61
2023-04-17T08:24:23.811Z,35.84
2023-04-17T08:25:23.878Z,35.99
2023-04-17T08:26:23.860Z,36.13
2023-04-17T08:27:23.921Z,36.24
2023-04-17T08:28:23.955Z,36.21
2023-04-17T08:29:23.946Z,36.52
2023-04-17T08:30:23.989Z,36.45
2023-04-17T08:31:24.105Z,36.47
2023-04-17T08:32:24.105Z,36.57
2023-04-17T08:33:24.105Z,36.75
2023-04-17T08:34:24.161Z,36.80
2023-04-17T08:35:24.129Z,36.71
2023-04-17T08:36:24.158Z,36.66
2023-04-17T08:37:24.417Z,36.73
2023-04-17T08:38:24.164Z,36.92
2023-04-17T08:39:24.191Z,37.28
2023-04-17T08:40:24.199Z,37.52
2023-04-17T08:41:24.251Z,37.99
2023-04-17T08:42:24.155Z,38.12
2023-04-17T08:43:24.230Z,36.48
2023-04-17T08:44:24.196Z,37.09
2023-04-17T08:45:24.284Z,37.35
2023-04-17T08:46:24.275Z,37.27
2023-04-17T08:47:24.296Z,36.85
2023-04-17T08:48:24.349Z,36.11
2023-04-17T08:49:24.348Z,35.68
2023-04-17T08:50:24.407Z,36.03
2023-04-17T08:51:24.416Z,35.90
2023-04-17T08:52:24.914Z,35.41
2023-04-17T08:53:24.472Z,35.15
2023-04-17T08:54:24.521Z,35.87
2023-04-17T08:55:24.560Z,36.10
2023-04-17T08:56:24.601Z,36.02
2023-04-17T08:57:24.705Z,35.85
2023-04-17T08:58:25.300Z,34.93
2023-04-17T08:59:24.737Z,34.13
2023-04-17T09:00:24.702Z,33.54
2023-04-17T09:01:24.737Z,33.19
2023-04-17T09:02:27.444Z,33.29
2023-04-17T09:03:24.829Z,33.06
2023-04-17T09:04:24.849Z,33.34
2023-04-17T09:05:24.809Z,33.29
2023-04-17T09:06:24.698Z,32.84
2023-04-17T09:07:24.992Z,33.14
2023-04-17T09:08:24.684Z,32.84
2023-04-17T09:09:24.664Z,32.98
2023-04-17T09:10:24.671Z,32.58
2023-04-17T09:11:24.640Z,32.24
2023-04-17T09:12:24.627Z,31.16
2023-04-17T09:13:24.625Z,31.24
2023-04-17T09:14:26.624Z,31.20
2023-04-17T09:15:24.645Z,31.26
2023-04-17T09:16:24.726Z,31.44
2023-04-17T09:17:24.629Z,30.98
2023-04-17T09:18:24.602Z,30.71
2023-04-17T09:19:24.608Z,30.62
2023-04-17T09:20:24.601Z,30.49
2023-04-17T09:21:24.547Z,30.31
2023-04-17T09:22:24.559Z,30.16
2023-04-17T09:23:24.597Z,30.31
2023-04-17T09:24:24.630Z,30.40
2023-04-17T09:25:25.323Z,30.42
2023-04-17T09:26:24.585Z,30.53
2023-04-17T09:27:25.412Z,30.99
2023-04-17T09:28:24.604Z,30.92
2023-04-17T09:29:24.640Z,31.27
2023-04-17T09:30:24.689Z,31.08
2023-04-17T09:31:24.800Z,31.49
2023-04-17T09:32:25.439Z,31.21
2023-04-17T09:33:24.763Z,30.80
2023-04-17T09:34:24.778Z,31.28
2023-04-17T09:35:24.910Z,31.23
2023-04-17T09:36:24.864Z,31.39
2023-04-17T09:37:24.862Z,32.03
2023-04-17T09:38:24.896Z,32.02
2023-04-17T09:39:24.923Z,32.06
2023-04-17T09:40:25.039Z,32.20
2023-04-17T09:41:25.018Z,32.27
2023-04-17T09:42:25.415Z,32.33
2023-04-17T09:43:25.015Z,32.73
2023-04-17T09:44:25.051Z,33.01
2023-04-17T09:45:25.117Z,32.92
2023-04-17T09:46:25.118Z,32.83
2023-04-17T09:47:25.474Z,32.79
2023-04-17T09:48:25.148Z,32.79
2023-04-17T09:49:25.125Z,32.78
2023-04-17T09:50:25.160Z,32.79
2023-04-17T09:51:25.174Z,32.81
2023-04-17T09:52:25.224Z,32.84
2023-04-17T09:53:25.183Z,32.88
2023-04-17T09:54:25.191Z,32.89
2023-04-17T09:55:25.194Z,32.91
2023-04-17T09:56:25.217Z,32.94
2023-04-17T09:57:25.220Z,32.92
2023-04-17T09:58:25.274Z,32.93
2023-04-17T09:59:25.283Z,32.95
2023-04-17T10:00:25.257Z,32.96
2023-04-17T10:01:25.455Z,32.94
2023-04-17T10:02:25.408Z,32.98
2023-04-17T10:03:25.587Z,32.98
2023-04-17T10:04:25.525Z,33.00
2023-04-17T10:05:25.380Z,33.00
2023-04-17T10:06:25.376Z,33.02
2023-04-17T10:07:25.474Z,33.03
2023-04-17T10:08:25.434Z,33.03
2023-04-17T10:09:25.441Z,33.02
2023-04-17T10:10:25.458Z,33.03
2023-04-17T10:11:25.451Z,33.04
2023-04-17T10:12:25.511Z,33.02
2023-04-17T10:13:25.516Z,33.05
2023-04-17T10:14:25.514Z,33.06
2023-04-17T10:15:25.526Z,33.07
2023-04-17T10:16:25.574Z,33.07
2023-04-17T10:17:25.957Z,33.06
2023-04-17T10:18:25.566Z,33.07
2023-04-17T10:19:28.275Z,33.07
2023-04-17T10:20:25.598Z,33.08
2023-04-17T10:21:25.572Z,33.08
2023-04-17T10:22:25.574Z,33.08
2023-04-17T10:23:25.709Z,33.05
2023-04-17T10:24:25.571Z,33.08
2023-04-17T10:25:25.521Z,33.08
2023-04-17T10:26:25.543Z,33.09
2023-04-17T10:27:25.613Z,33.07
2023-04-17T10:28:25.957Z,33.08
2023-04-17T10:29:25.513Z,33.07
2023-04-17T10:30:25.537Z,33.09
2023-04-17T10:31:25.572Z,33.10
2023-04-17T10:32:25.564Z,33.09
2023-04-17T10:33:25.523Z,33.10
2023-04-17T10:34:25.457Z,33.11
2023-04-17T10:35:25.487Z,33.11
2023-04-17T10:36:25.731Z,33.09
2023-04-17T10:37:25.478Z,33.12
2023-04-17T10:38:26.015Z,33.11
2023-04-17T10:39:25.439Z,33.11
2023-04-17T10:40:25.431Z,33.11
2023-04-17T10:41:25.450Z,33.12
2023-04-17T10:42:25.401Z,33.10
2023-04-17T10:43:25.463Z,33.09
2023-04-17T10:44:25.448Z,33.08
2023-04-17T10:45:25.404Z,33.11
2023-04-17T10:46:25.419Z,33.11
2023-04-17T10:47:25.398Z,33.08
2023-04-17T10:48:25.405Z,33.08
2023-04-17T10:49:25.381Z,33.10
2023-04-17T10:50:25.366Z,33.06
2023-04-17T10:51:25.351Z,33.06
2023-04-17T10:52:25.365Z,33.06
2023-04-17T10:53:25.351Z,33.07
2023-04-17T10:54:25.324Z,33.07
2023-04-17T10:55:25.323Z,33.07
2023-04-17T10:56:25.335Z,33.07
2023-04-17T10:57:25.294Z,33.06
2023-04-17T10:58:31.744Z,33.00
2023-04-17T10:59:26.320Z,33.03
2023-04-17T11:00:25.315Z,33.04
2023-04-17T11:01:26.711Z,33.05
2023-04-17T11:02:25.401Z,33.03
2023-04-17T11:03:25.378Z,33.04
2023-04-17T11:04:25.329Z,33.01
2023-04-17T11:05:25.267Z,33.01
2023-04-17T11:06:25.254Z,33.03
2023-04-17T11:07:25.239Z,33.00
2023-04-17T11:08:25.450Z,32.98
2023-04-17T11:09:25.289Z,32.98
2023-04-17T11:10:25.229Z,32.99
2023-04-17T11:11:35.087Z,32.97
2023-04-17T11:12:26.204Z,32.98
2023-04-17T11:13:25.188Z,32.98
2023-04-17T11:14:25.216Z,32.98
2023-04-17T11:15:25.222Z,32.96
2023-04-17T11:16:25.233Z,32.98
2023-04-17T11:17:25.199Z,32.97
2023-04-17T11:18:25.158Z,32.97
2023-04-17T11:19:25.194Z,32.90
2023-04-17T11:20:25.171Z,32.92
2023-04-17T11:21:25.174Z,32.92
2023-04-17T11:22:25.168Z,32.93
2023-04-17T11:23:25.157Z,32.93
2023-04-17T11:24:25.124Z,32.93
2023-04-17T11:25:25.136Z,32.89
2023-04-17T11:26:25.116Z,32.84
2023-04-17T11:27:25.126Z,32.84
2023-04-17T11:28:25.102Z,32.89
2023-04-17T11:29:25.088Z,32.85
2023-04-17T11:30:25.108Z,32.88
2023-04-17T11:31:25.339Z,32.86
2023-04-17T11:32:25.139Z,32.83
2023-04-17T11:33:25.497Z,32.80
2023-04-17T11:34:25.155Z,32.84
2023-04-17T11:35:25.166Z,32.81
2023-04-17T11:36:25.156Z,32.81
2023-04-17T11:37:25.183Z,32.81
2023-04-17T11:38:25.458Z,32.77
2023-04-17T11:39:25.197Z,32.76
2023-04-17T11:40:25.217Z,32.80
2023-04-17T11:41:25.266Z,32.77
2023-04-17T11:42:25.279Z,32.78
2023-04-17T11:43:25.315Z,32.75
2023-04-17T11:44:25.365Z,32.72
2023-04-17T11:45:25.360Z,32.71
2023-04-17T11:46:25.377Z,32.74
2023-04-17T11:47:25.384Z,32.70
2023-04-17T11:48:25.460Z,32.71
2023-04-17T11:49:25.428Z,32.68
2023-04-17T11:50:25.446Z,32.69
2023-04-17T11:51:25.493Z,32.68
2023-04-17T11:52:25.513Z,32.68
2023-04-17T11:53:25.538Z,32.68
2023-04-17T11:54:25.526Z,32.64
2023-04-17T11:55:25.534Z,32.63
2023-04-17T11:56:25.578Z,32.64
2023-04-17T11:57:25.597Z,32.65
2023-04-17T11:58:25.561Z,32.63
2023-04-17T11:59:25.609Z,32.59
2023-04-17T12:00:25.613Z,32.58
2023-04-17T12:01:25.627Z,32.59
2023-04-17T12:02:25.717Z,32.57
2023-04-17T12:03:25.782Z,32.57
2023-04-17T12:04:25.831Z,32.53
2023-04-17T12:05:25.817Z,32.52
2023-04-17T12:06:25.685Z,32.51
2023-04-17T12:07:25.714Z,32.51
2023-04-17T12:08:25.722Z,32.52
2023-04-17T12:09:25.768Z,32.49
2023-04-17T12:10:25.756Z,32.47
2023-04-17T12:11:25.815Z,32.47
2023-04-17T12:12:25.860Z,32.45
2023-04-17T12:13:25.831Z,32.44
2023-04-17T12:14:26.528Z,32.47
2023-04-17T12:15:25.856Z,32.49
2023-04-17T12:16:25.926Z,32.50
2023-04-17T12:17:25.913Z,32.50
2023-04-17T12:18:25.904Z,32.53
2023-04-17T12:19:25.885Z,32.52
2023-04-17T12:20:26.789Z,32.49
2023-04-17T12:21:25.955Z,32.50
2023-04-17T12:22:25.987Z,32.51
2023-04-17T12:23:25.991Z,32.48
2023-04-17T12:24:25.976Z,32.50
2023-04-17T12:25:26.011Z,32.49
2023-04-17T12:26:26.045Z,32.49
2023-04-17T12:27:26.020Z,32.47
2023-04-17T12:28:26.054Z,32.47
2023-04-17T12:29:40.522Z,32.46
2023-04-17T12:30:27.050Z,32.45
2023-04-17T12:31:26.068Z,32.46
2023-04-17T12:32:26.080Z,32.44
2023-04-17T12:33:26.042Z,32.43
2023-04-17T12:34:27.776Z,32.43
2023-04-17T12:35:26.018Z,32.44
2023-04-17T12:36:26.089Z,32.43
2023-04-17T12:37:26.037Z,32.42
2023-04-17T12:38:25.991Z,32.41
2023-04-17T12:39:26.039Z,32.43
2023-04-17T12:40:25.983Z,32.42
2023-04-17T12:41:25.989Z,32.43
2023-04-17T12:42:26.833Z,32.42
2023-04-17T12:43:25.984Z,32.41
2023-04-17T12:44:25.998Z,32.38
2023-04-17T12:45:26.013Z,32.40
2023-04-17T12:46:26.065Z,32.39
2023-04-17T12:47:26.000Z,32.40
2023-04-17T12:48:25.940Z,32.37
2023-04-17T12:49:25.903Z,32.39
2023-04-17T12:50:25.953Z,32.36
2023-04-17T12:51:25.934Z,32.36
2023-04-17T12:52:25.929Z,32.38